TimeEST,TemperatureF,Dew PointF,Humidity,Sea Level PressureIn,VisibilityMPH,Wind Direction,Wind SpeedMPH,Gust SpeedMPH,PrecipitationIn,Events,Conditions,WindDirDegrees,DateUTC
12:54 AM,30.0,15.1,54,30.02,10.0,NNE,3.5,-,N/A,,Overcast,20,2013-01-24 05:54:00
1:54 AM,30.0,16.0,56,30.01,10.0,NNE,6.9,-,N/A,,Overcast,30,2013-01-24 06:54:00
2:54 AM,28.9,15.1,56,30.01,10.0,NE,11.5,-,N/A,,Overcast,40,2013-01-24 07:54:00
3:54 AM,28.0,12.0,51,30.02,10.0,ENE,4.6,-,N/A,,Overcast,60,2013-01-24 08:54:00
4:54 AM,27.0,14.0,58,30.04,10.0,NE,3.5,-,N/A,,Overcast,50,2013-01-24 09:54:00
5:54 AM,28.9,12.9,51,30.07,10.0,Variable,3.5,-,N/A,,Overcast,0,2013-01-24 10:54:00
6:54 AM,30.0,9.0,41,30.11,10.0,NW,16.1,31.1,N/A,,Overcast,320,2013-01-24 11:54:00
7:54 AM,28.0,7.0,41,30.17,10.0,Variable,6.9,26.5,N/A,,Mostly Cloudy,0,2013-01-24 12:54:00
8:54 AM,27.0,3.0,36,30.24,10.0,NNW,12.7,19.6,N/A,,Mostly Cloudy,330,2013-01-24 13:54:00
9:54 AM,26.1,1.0,34,30.30,10.0,North,15.0,26.5,N/A,,Mostly Cloudy,360,2013-01-24 14:54:00
10:54 AM,27.0,-0.0,31,30.34,10.0,North,13.8,19.6,N/A,,Partly Cloudy,360,2013-01-24 15:54:00
11:54 AM,28.0,1.0,31,30.38,10.0,NNW,10.4,24.2,N/A,,Mostly Cloudy,340,2013-01-24 16:54:00
12:54 PM,28.0,1.0,31,30.38,10.0,North,11.5,21.9,N/A,,Clear,10,2013-01-24 17:54:00
1:54 PM,28.0,-2.9,26,30.38,10.0,NNW,10.4,21.9,N/A,,Scattered Clouds,330,2013-01-24 18:54:00
2:54 PM,28.9,-4.0,24,30.40,10.0,NNE,16.1,23.0,N/A,,Partly Cloudy,20,2013-01-24 19:54:00
3:54 PM,28.0,-5.1,24,30.43,10.0,North,11.5,20.7,N/A,,Clear,10,2013-01-24 20:54:00
4:54 PM,26.1,-5.1,26,30.45,10.0,North,8.1,-,N/A,,Clear,360,2013-01-24 21:54:00
5:54 PM,25.0,-2.9,30,30.47,10.0,NW,4.6,-,N/A,,Clear,310,2013-01-24 22:54:00
6:54 PM,23.0,-2.0,34,30.51,10.0,Calm,Calm,-,N/A,,Clear,0,2013-01-24 23:54:00
7:54 PM,21.9,-0.0,38,30.53,10.0,Variable,4.6,-,N/A,,Clear,0,2013-01-25 00:54:00
8:54 PM,21.0,-0.0,40,30.54,10.0,North,4.6,-,N/A,,Clear,10,2013-01-25 01:54:00
9:54 PM,19.9,-0.0,42,30.54,10.0,North,3.5,-,N/A,,Clear,350,2013-01-25 02:54:00
10:54 PM,19.0,1.0,46,30.53,10.0,North,6.9,-,N/A,,Clear,10,2013-01-25 03:54:00
11:54 PM,18.0,1.9,50,30.52,10.0,NNE,5.8,-,N/A,,Clear,30,2013-01-25 04:54:00